Time;durP1;ratioP1;P1;durP2;ratioP2;P2;SDS_P1;SDS_P2;PMS_P1;PMS_P2;Temp;Humidity;BMP_temperature;BMP_pressure;BME280_temperature;BME280_humidity;BME280_pressure;Samples;Min_cycle;Max_cycle;Signal;HPM_P1;HPM_P2
2022/07/03 00:00:11;;;;;;;2.85;2.70;;;16.20;99.90;;;;;;5038581;28;20230;-74
2022/07/03 00:02:37;;;;;;;2.75;2.55;;;16.10;99.90;;;;;;5046287;28;20180;-74
2022/07/03 00:05:03;;;;;;;3.13;2.92;;;16.00;99.90;;;;;;5044566;28;20204;-73
2022/07/03 00:07:29;;;;;;;2.97;2.75;;;16.00;99.90;;;;;;5014961;28;20517;-73
2022/07/03 00:09:54;;;;;;;2.90;2.70;;;16.00;99.90;;;;;;5013322;28;20594;-74
2022/07/03 00:12:20;;;;;;;2.50;2.40;;;16.10;99.90;;;;;;5014382;28;20173;-73
2022/07/03 00:14:46;;;;;;;2.80;2.70;;;16.10;99.90;;;;;;5031391;28;20258;-74
2022/07/03 00:17:11;;;;;;;3.10;2.90;;;16.10;99.90;;;;;;5033276;28;20176;-73
2022/07/03 00:19:37;;;;;;;2.85;2.65;;;16.00;99.90;;;;;;5034210;28;20636;-73
2022/07/03 00:22:10;;;;;;;3.15;2.95;;;16.00;99.90;;;;;;5026867;28;20198;-73
2022/07/03 00:24:51;;;;;;;2.97;2.85;;;16.00;99.90;;;;;;5013097;28;20301;-73
2022/07/03 00:27:19;;;;;;;3.20;3.00;;;16.00;99.90;;;;;;5012880;28;20181;-73
2022/07/03 00:29:46;;;;;;;3.30;3.10;;;16.00;99.90;;;;;;5012364;28;20617;-74
2022/07/03 00:32:18;;;;;;;2.92;2.72;;;15.90;99.90;;;;;;5013951;28;20536;-73
2022/07/03 00:34:46;;;;;;;2.90;2.70;;;15.80;99.90;;;;;;5014235;28;20185;-73
2022/07/03 00:37:12;;;;;;;2.80;2.60;;;15.70;99.90;;;;;;5013983;28;20169;-73
2022/07/03 00:39:41;;;;;;;2.83;2.72;;;15.70;99.90;;;;;;5014066;28;20370;-73
2022/07/03 00:42:08;;;;;;;3.45;3.25;;;15.60;99.90;;;;;;5013747;28;20224;-73
2022/07/03 00:44:55;;;;;;;2.83;2.70;;;15.60;99.90;;;;;;5013613;28;20197;-73
2022/07/03 00:47:23;;;;;;;3.75;3.28;;;15.60;99.90;;;;;;5020063;28;20180;-74
2022/07/03 00:49:52;;;;;;;3.22;3.00;;;15.50;99.90;;;;;;5014465;28;20188;-73
2022/07/03 00:52:20;;;;;;;3.40;3.10;;;15.40;99.90;;;;;;5027244;28;20242;-73
2022/07/03 00:54:54;;;;;;;3.15;2.90;;;15.30;99.90;;;;;;5035903;28;20210;-73
2022/07/03 00:57:22;;;;;;;3.13;2.92;;;15.30;99.90;;;;;;5044141;28;20176;-73
2022/07/03 00:59:48;;;;;;;3.38;2.97;;;15.30;99.90;;;;;;5042661;28;20572;-73
2022/07/03 01:02:38;;;;;;;3.17;2.88;;;15.20;99.90;;;;;;5052726;28;20172;-73
2022/07/03 01:05:30;;;;;;;3.25;2.78;;;15.10;99.90;;;;;;5048516;28;20275;-73
2022/07/03 01:08:25;;;;;;;3.22;2.92;;;15.10;99.90;;;;;;5012243;28;20209;-73
2022/07/03 01:11:58;;;;;;;3.88;3.58;;;15.20;99.90;;;;;;5013245;28;20165;-73
2022/07/03 01:14:58;;;;;;;6.00;3.35;;;15.20;99.90;;;;;;4969811;28;20757;-73
2022/07/03 01:17:31;;;;;;;3.10;2.90;;;15.20;99.90;;;;;;5013632;28;20524;-73
2022/07/03 01:20:07;;;;;;;4.47;3.35;;;15.20;99.90;;;;;;5013497;28;20176;-73
2022/07/03 01:22:53;;;;;;;3.30;3.10;;;15.20;99.90;;;;;;5022278;28;20177;-74
2022/07/03 01:25:22;;;;;;;3.35;3.15;;;15.10;99.90;;;;;;5012459;28;20259;-73
2022/07/03 01:28:14;;;;;;;3.33;3.05;;;15.10;99.90;;;;;;5013193;28;20197;-74
2022/07/03 01:30:47;;;;;;;3.50;3.30;;;15.00;99.90;;;;;;5011622;28;20185;-73
2022/07/03 01:33:19;;;;;;;3.45;3.25;;;15.00;99.90;;;;;;5026743;28;20204;-74
2022/07/03 01:36:06;;;;;;;3.10;2.90;;;15.00;99.90;;;;;;5040181;28;20295;-73
2022/07/03 01:38:37;;;;;;;3.60;3.40;;;14.90;99.90;;;;;;5030210;28;20184;-74
2022/07/03 01:41:05;;;;;;;3.63;3.30;;;15.00;99.90;;;;;;5032028;28;20266;-74
2022/07/03 01:43:32;;;;;;;3.40;3.20;;;15.00;99.90;;;;;;5029361;28;20180;-74
2022/07/03 01:46:00;;;;;;;4.25;3.85;;;15.10;99.90;;;;;;5029213;28;20267;-74
2022/07/03 01:48:27;;;;;;;3.47;3.28;;;15.10;99.90;;;;;;5028192;28;20294;-74
2022/07/03 01:50:55;;;;;;;3.10;2.90;;;15.10;99.90;;;;;;5026221;28;20207;-74
2022/07/03 01:53:24;;;;;;;4.38;4.00;;;15.00;99.90;;;;;;5014604;28;20181;-73
2022/07/03 01:55:51;;;;;;;3.45;3.20;;;14.80;99.90;;;;;;5016796;28;20239;-73
2022/07/03 01:58:16;;;;;;;3.45;3.25;;;14.70;99.90;;;;;;5029658;28;20652;-73
2022/07/03 02:00:50;;;;;;;7.43;3.47;;;14.60;99.90;;;;;;5023815;28;20192;-74
2022/07/03 02:03:26;;;;;;;3.97;3.70;;;14.40;99.90;;;;;;5020631;28;20184;-74
2022/07/03 02:06:06;;;;;;;4.05;3.75;;;14.40;99.90;;;;;;5020431;28;20172;-74
2022/07/03 02:08:37;;;;;;;3.80;3.50;;;14.40;99.90;;;;;;5019404;28;20207;-74
2022/07/03 02:11:16;;;;;;;3.80;3.50;;;14.40;99.90;;;;;;5021671;28;20168;-73
2022/07/03 02:13:50;;;;;;;3.85;3.55;;;14.50;99.90;;;;;;5019876;28;20205;-73
2022/07/03 02:16:19;;;;;;;3.13;2.90;;;14.50;99.90;;;;;;5021011;28;20224;-72
2022/07/03 02:19:17;;;;;;;3.45;3.13;;;14.40;99.90;;;;;;5021423;28;20173;-74
2022/07/03 02:21:54;;;;;;;3.50;3.20;;;14.40;99.90;;;;;;5018727;28;20184;-74
2022/07/03 02:24:22;;;;;;;4.20;3.47;;;14.40;99.90;;;;;;5020054;28;20208;-73
2022/07/03 02:27:03;;;;;;;3.30;3.10;;;14.30;99.90;;;;;;5022778;28;20506;-75
2022/07/03 02:30:05;;;;;;;4.00;3.63;;;14.30;99.90;;;;;;5022855;28;20301;-74
2022/07/03 02:32:35;;;;;;;3.60;3.30;;;14.20;99.90;;;;;;5023493;28;20730;-74
2022/07/03 02:35:19;;;;;;;3.40;3.15;;;14.10;99.90;;;;;;5028580;28;20192;-74
2022/07/03 02:37:50;;;;;;;3.10;2.92;;;14.10;99.90;;;;;;5021828;28;20717;-74
2022/07/03 02:40:33;;;;;;;3.70;3.40;;;14.10;99.90;;;;;;5023858;28;20272;-73
2022/07/03 02:43:16;;;;;;;3.75;3.55;;;14.00;99.90;;;;;;5030406;28;20173;-74
2022/07/03 02:49:02;;;;;;;3.83;3.53;;;14.00;99.90;;;;;;5034379;28;20215;-73
2022/07/03 02:51:37;;;;;;;3.50;3.30;;;14.00;99.90;;;;;;5035666;28;20525;-74
2022/07/03 02:54:12;;;;;;;3.97;3.78;;;13.90;99.90;;;;;;5017943;28;20189;-74
2022/07/03 02:56:44;;;;;;;3.75;3.45;;;13.90;99.90;;;;;;5029426;28;20172;-74
2022/07/03 02:59:20;;;;;;;3.40;3.20;;;13.90;99.90;;;;;;5036318;28;20717;-73
2022/07/03 03:02:12;;;;;;;4.03;3.72;;;13.90;99.90;;;;;;5043402;28;20203;-73
2022/07/03 03:04:44;;;;;;;3.40;3.20;;;14.00;99.90;;;;;;5034419;28;20193;-73
2022/07/03 03:07:29;;;;;;;3.90;3.60;;;14.20;99.90;;;;;;5022943;28;20193;-74
2022/07/03 03:09:56;;;;;;;3.58;3.28;;;14.20;99.90;;;;;;5015825;28;20268;-73
2022/07/03 03:12:35;;;;;;;3.33;3.13;;;14.20;99.90;;;;;;5015088;28;20178;-74
2022/07/03 03:15:03;;;;;;;3.85;3.60;;;14.20;99.90;;;;;;5029173;28;20204;-73
2022/07/03 03:17:41;;;;;;;3.35;3.15;;;14.20;99.90;;;;;;5035438;28;20172;-73
2022/07/03 03:20:08;;;;;;;3.67;3.40;;;14.20;99.90;;;;;;5035289;28;20172;-73
2022/07/03 03:22:40;;;;;;;3.58;3.38;;;14.10;99.90;;;;;;5021177;28;20272;-73
2022/07/03 03:25:05;;;;;;;3.85;3.55;;;14.10;99.90;;;;;;5015488;28;20185;-73
2022/07/03 03:27:31;;;;;;;3.45;3.25;;;14.10;99.90;;;;;;5015148;28;20175;-73
2022/07/03 03:29:58;;;;;;;3.58;3.38;;;14.10;99.90;;;;;;5014518;28;20321;-74
2022/07/03 03:32:26;;;;;;;3.75;3.45;;;14.00;99.90;;;;;;5014889;28;20248;-74
2022/07/03 03:34:51;;;;;;;4.05;3.65;;;13.90;99.90;;;;;;5015031;28;20205;-74
2022/07/03 03:37:17;;;;;;;3.80;3.50;;;13.90;99.90;;;;;;5014299;28;20178;-74
2022/07/03 03:39:43;;;;;;;3.72;3.53;;;13.90;99.90;;;;;;5015085;28;20668;-73
2022/07/03 03:42:09;;;;;;;3.53;3.33;;;13.90;99.90;;;;;;5015075;28;20192;-74
2022/07/03 03:44:34;;;;;;;4.32;3.88;;;13.90;99.90;;;;;;5014970;28;20193;-74
2022/07/03 03:47:01;;;;;;;3.40;3.20;;;14.00;99.90;;;;;;5029297;28;20241;-74
2022/07/03 03:49:27;;;;;;;3.58;3.35;;;14.10;99.90;;;;;;5038055;28;20282;-73
2022/07/03 03:51:53;;;;;;;3.70;3.50;;;14.10;99.90;;;;;;5043164;28;20173;-73
2022/07/03 03:54:18;;;;;;;3.83;3.60;;;14.10;99.90;;;;;;5045032;28;20269;-73
2022/07/03 03:56:44;;;;;;;3.70;3.38;;;14.10;99.90;;;;;;5037641;28;20554;-73
2022/07/03 03:59:10;;;;;;;3.42;3.22;;;14.00;99.90;;;;;;5025596;28;20204;-73
2022/07/03 04:01:35;;;;;;;3.42;3.13;;;14.00;99.90;;;;;;5041392;28;20180;-74
2022/07/03 04:04:01;;;;;;;3.80;3.50;;;14.00;99.90;;;;;;5042606;28;20200;-74
2022/07/03 04:06:27;;;;;;;3.38;3.08;;;14.00;99.90;;;;;;5027601;28;20230;-74
2022/07/03 04:08:52;;;;;;;3.05;2.92;;;14.00;99.90;;;;;;5024374;28;20274;-73
2022/07/03 04:11:18;;;;;;;5.75;3.20;;;14.10;99.90;;;;;;5013983;28;20169;-73
2022/07/03 04:13:45;;;;;;;2.90;2.80;;;14.10;99.90;;;;;;5022591;28;20288;-73
2022/07/03 04:16:12;;;;;;;3.45;3.25;;;14.20;99.90;;;;;;5032653;28;20179;-73
2022/07/03 04:18:38;;;;;;;3.55;3.35;;;14.20;99.90;;;;;;5023456;28;20707;-75
2022/07/03 04:21:04;;;;;;;3.95;3.75;;;14.30;99.90;;;;;;5030219;28;20192;-74
2022/07/03 04:23:30;;;;;;;3.58;3.38;;;14.30;99.90;;;;;;5041447;28;20173;-73
2022/07/03 04:26:02;;;;;;;3.80;3.40;;;14.40;99.90;;;;;;5033312;28;20188;-73
2022/07/03 04:28:27;;;;;;;4.60;4.30;;;14.50;99.90;;;;;;5014108;28;20687;-74
2022/07/03 04:30:53;;;;;;;4.10;3.80;;;14.60;99.90;;;;;;5014116;28;20243;-74
2022/07/03 04:33:18;;;;;;;3.75;3.55;;;14.70;99.90;;;;;;5013929;28;20211;-73
2022/07/03 04:35:44;;;;;;;4.20;3.80;;;14.70;99.90;;;;;;5013843;28;20256;-74
2022/07/03 04:38:10;;;;;;;3.65;3.45;;;14.80;99.90;;;;;;5013885;28;20184;-73
2022/07/03 04:40:36;;;;;;;4.55;4.25;;;14.80;99.90;;;;;;5013889;28;20177;-74
2022/07/03 04:43:01;;;;;;;4.60;4.30;;;14.90;99.90;;;;;;5013455;28;20239;-73
2022/07/03 04:45:27;;;;;;;4.00;3.70;;;15.00;99.90;;;;;;5013518;28;20236;-73
2022/07/03 04:47:53;;;;;;;4.55;4.15;;;15.00;99.90;;;;;;5013860;28;20193;-74
2022/07/03 04:50:18;;;;;;;4.55;4.15;;;15.10;99.90;;;;;;5013629;28;20181;-74
2022/07/03 04:52:44;;;;;;;4.32;4.07;;;15.20;99.90;;;;;;5015408;28;20199;-73
2022/07/03 04:55:10;;;;;;;5.47;4.20;;;15.30;99.90;;;;;;5033185;28;20271;-73
2022/07/03 04:57:36;;;;;;;4.72;4.32;;;15.30;99.90;;;;;;5034643;28;20172;-73
2022/07/03 05:00:02;;;;;;;3.65;3.45;;;15.40;99.90;;;;;;5037227;28;20559;-73
2022/07/03 05:02:27;;;;;;;4.15;3.85;;;15.50;99.90;;;;;;5037344;28;20263;-73
2022/07/03 05:04:53;;;;;;;3.78;3.58;;;15.60;99.90;;;;;;5033894;28;20668;-72
2022/07/03 05:07:19;;;;;;;4.72;4.43;;;15.70;99.90;;;;;;5036990;28;20202;-73
2022/07/03 05:09:44;;;;;;;3.92;3.70;;;15.80;99.90;;;;;;5044291;28;20212;-73
2022/07/03 05:12:10;;;;;;;4.32;4.00;;;15.90;99.90;;;;;;5025286;28;20181;-74
2022/07/03 05:14:35;;;;;;;3.97;3.67;;;15.90;99.90;;;;;;5012906;28;20744;-73
2022/07/03 05:17:01;;;;;;;3.58;3.38;;;15.90;99.90;;;;;;5013499;28;20172;-73
2022/07/03 05:19:27;;;;;;;4.00;3.80;;;16.10;99.90;;;;;;5012812;28;20817;-73
2022/07/03 05:21:52;;;;;;;4.00;3.67;;;16.20;99.90;;;;;;5012563;28;20663;-73
2022/07/03 05:24:18;;;;;;;4.05;3.65;;;16.30;99.90;;;;;;5012841;28;20205;-73
2022/07/03 05:26:43;;;;;;;3.83;3.53;;;16.40;99.90;;;;;;5012679;28;20177;-73
2022/07/03 05:29:09;;;;;;;3.65;3.40;;;16.50;99.90;;;;;;5012838;28;20217;-73
2022/07/03 05:31:34;;;;;;;3.45;2.90;;;16.50;99.90;;;;;;5012840;28;20564;-73
2022/07/03 05:34:00;;;;;;;3.60;3.40;;;16.60;99.90;;;;;;5012546;28;20197;-73
2022/07/03 05:36:26;;;;;;;3.70;3.45;;;16.70;99.90;;;;;;5012985;28;20260;-74
2022/07/03 05:41:35;;;;;;;3.42;3.13;;;16.90;99.90;;;;;;5012860;28;20171;-73
2022/07/03 05:44:01;;;;;;;3.28;3.08;;;17.00;99.90;;;;;;5012350;28;20196;-73
2022/07/03 05:46:26;;;;;;;3.30;3.10;;;17.10;99.90;;;;;;5012721;28;20181;-74
2022/07/03 05:48:52;;;;;;;3.60;3.30;;;17.20;99.90;;;;;;5012536;28;20204;-74
2022/07/03 05:51:17;;;;;;;2.90;2.80;;;17.30;99.90;;;;;;5020772;28;20914;-74
2022/07/03 05:53:43;;;;;;;3.35;3.05;;;17.40;99.90;;;;;;5026661;28;20204;-74
2022/07/03 05:56:09;;;;;;;3.30;3.10;;;17.50;99.90;;;;;;5030123;28;20648;-75
2022/07/03 05:58:34;;;;;;;3.33;3.13;;;17.60;99.90;;;;;;5027188;28;20185;-78
2022/07/03 06:01:00;;;;;;;3.63;3.33;;;17.80;99.90;;;;;;5029433;28;20204;-80
2022/07/03 06:03:25;;;;;;;3.30;3.10;;;17.90;99.90;;;;;;5018464;28;20272;-78
2022/07/03 06:05:51;;;;;;;3.47;3.08;;;18.00;99.90;;;;;;5022541;28;20951;-79
2022/07/03 06:08:17;;;;;;;3.83;3.42;;;18.10;99.90;;;;;;5018612;28;20324;-80
2022/07/03 06:10:42;;;;;;;3.60;3.20;;;18.20;99.90;;;;;;5019016;28;20252;-79
2022/07/03 06:13:08;;;;;;;4.00;3.70;;;18.30;99.90;;;;;;5017550;28;20191;-79
2022/07/03 06:15:33;;;;;;;3.42;3.22;;;18.40;99.90;;;;;;5029380;28;20260;-79
2022/07/03 06:17:59;;;;;;;3.60;3.40;;;18.50;99.90;;;;;;5034935;28;20652;-79
2022/07/03 06:20:25;;;;;;;3.10;2.90;;;18.60;99.90;;;;;;5032345;28;20169;-78
2022/07/03 06:22:50;;;;;;;4.03;3.80;;;18.70;99.90;;;;;;5034701;28;20184;-79
2022/07/03 06:25:17;;;;;;;2.80;2.70;;;18.80;99.90;;;;;;5045156;28;20196;-79
2022/07/03 06:27:42;;;;;;;4.13;2.67;;;19.00;99.90;;;;;;5038372;28;20171;-78
2022/07/03 06:30:09;;;;;;;2.80;2.60;;;19.10;99.90;;;;;;5020467;28;20617;-79
2022/07/03 06:32:34;;;;;;;2.67;2.58;;;19.20;99.90;;;;;;5017381;28;20178;-78
2022/07/03 06:35:00;;;;;;;5.20;2.75;;;19.30;99.90;;;;;;5015899;28;20668;-79
2022/07/03 06:37:26;;;;;;;2.63;2.53;;;19.50;99.90;;;;;;5019758;28;20173;-79
2022/07/03 06:39:51;;;;;;;3.03;2.80;;;19.70;99.90;;;;;;5016559;28;20181;-76
2022/07/03 06:42:17;;;;;;;3.38;2.83;;;19.80;99.90;;;;;;5015515;28;20618;-77
2022/07/03 06:44:44;;;;;;;2.58;2.45;;;19.90;99.90;;;;;;5016451;28;20200;-78
2022/07/03 06:47:10;;;;;;;3.63;2.60;;;19.90;99.90;;;;;;5015708;28;20178;-79
2022/07/03 06:49:36;;;;;;;2.92;2.63;;;20.10;99.90;;;;;;5015885;28;20232;-72
2022/07/03 06:52:02;;;;;;;3.33;3.03;;;20.30;99.90;;;;;;5016897;28;20549;-73
2022/07/03 06:54:27;;;;;;;2.60;2.50;;;20.40;99.90;;;;;;5015221;28;20267;-73
2022/07/03 06:56:53;;;;;;;3.10;2.83;;;20.40;99.90;;;;;;5015602;28;20177;-73
2022/07/03 06:59:19;;;;;;;3.13;2.53;;;20.50;99.90;;;;;;5034098;28;20387;-74
2022/07/03 07:01:44;;;;;;;3.58;2.70;;;20.60;99.90;;;;;;5035315;28;20660;-74
2022/07/03 07:04:10;;;;;;;2.75;2.58;;;20.60;99.90;;;;;;5029304;28;20212;-76
2022/07/03 07:06:36;;;;;;;2.83;2.72;;;20.70;99.90;;;;;;5015174;28;20251;-73
2022/07/03 07:09:03;;;;;;;2.50;2.40;;;20.70;99.90;;;;;;5014864;28;20221;-74
2022/07/03 07:11:28;;;;;;;2.85;2.75;;;20.80;99.90;;;;;;5014778;28;20205;-73
2022/07/03 07:13:54;;;;;;;3.20;3.00;;;20.90;99.90;;;;;;5015528;28;20283;-76
2022/07/03 07:16:20;;;;;;;2.65;2.45;;;21.00;99.90;;;;;;5016294;28;20227;-74
2022/07/03 07:18:45;;;;;;;2.90;2.80;;;21.00;99.90;;;;;;5016464;28;20224;-74
2022/07/03 07:21:12;;;;;;;2.60;2.42;;;21.10;99.90;;;;;;5035647;28;20246;-73
2022/07/03 07:23:37;;;;;;;2.85;2.70;;;21.20;99.90;;;;;;5038888;28;20184;-73
2022/07/03 07:26:04;;;;;;;2.80;2.70;;;21.30;99.90;;;;;;5023682;28;20183;-75
2022/07/03 07:28:31;;;;;;;2.90;2.70;;;21.30;99.90;;;;;;5014768;28;20201;-75
2022/07/03 07:30:57;;;;;;;2.85;2.75;;;21.40;99.90;;;;;;5023505;28;20195;-75
2022/07/03 07:33:23;;;;;;;2.88;2.67;;;21.60;99.90;;;;;;5016384;28;20629;-77
2022/07/03 07:35:49;;;;;;;2.63;2.53;;;21.70;99.90;;;;;;5014073;28;20247;-77
2022/07/03 07:38:15;;;;;;;2.83;2.63;;;21.70;99.90;;;;;;5028876;28;20614;-79
2022/07/03 07:40:41;;;;;;;2.85;2.70;;;21.80;99.90;;;;;;5023291;28;20181;-74
2022/07/03 07:43:07;;;;;;;2.85;2.65;;;21.80;99.90;;;;;;5019522;28;20831;-76
2022/07/03 07:45:32;;;;;;;3.17;2.97;;;21.90;99.90;;;;;;5014085;28;20197;-76
2022/07/03 07:47:58;;;;;;;3.03;2.83;;;22.10;99.90;;;;;;5015175;28;20582;-75
2022/07/03 07:50:24;;;;;;;2.70;2.60;;;22.10;99.90;;;;;;5027190;28;20660;-74
2022/07/03 07:52:49;;;;;;;2.83;2.72;;;22.20;99.90;;;;;;5030879;28;20252;-74
2022/07/03 07:55:15;;;;;;;5.53;2.88;;;22.20;99.90;;;;;;5040786;28;20207;-71
2022/07/03 07:57:41;;;;;;;3.42;3.00;;;22.30;99.90;;;;;;5016344;28;20187;-71
2022/07/03 08:00:12;;;;;;;3.28;2.92;;;22.40;99.90;;;;;;5034607;28;20230;-72
2022/07/03 08:05:35;;;;;;;2.97;2.75;;;22.50;99.90;;;;;;5050554;28;20324;-71
2022/07/03 08:08:11;;;;;;;5.03;2.92;;;22.60;99.90;;;;;;5019194;28;20207;-72
2022/07/03 08:10:39;;;;;;;2.83;2.63;;;22.70;99.90;;;;;;5011121;28;20699;-72
2022/07/03 08:13:05;;;;;;;2.60;2.50;;;22.80;99.90;;;;;;5011938;28;20702;-69
2022/07/03 08:15:31;;;;;;;2.95;2.75;;;22.70;99.90;;;;;;5013312;28;20250;-69
2022/07/03 08:17:57;;;;;;;3.83;2.80;;;22.80;99.90;;;;;;5013560;28;20256;-69
2022/07/03 08:20:23;;;;;;;2.33;2.22;;;22.90;99.90;;;;;;5013762;28;20767;-69
2022/07/03 08:22:48;;;;;;;3.90;2.22;;;23.00;99.90;;;;;;5012841;28;20324;-69
2022/07/03 08:25:14;;;;;;;3.13;2.42;;;23.10;99.90;;;;;;5013127;28;20201;-72
2022/07/03 08:27:39;;;;;;;2.53;2.33;;;23.10;99.90;;;;;;5013340;28;20185;-72
2022/07/03 08:30:06;;;;;;;2.60;2.50;;;23.10;99.90;;;;;;5013175;28;20200;-72
2022/07/03 08:32:31;;;;;;;2.80;2.65;;;23.20;99.90;;;;;;5013095;28;20169;-70
2022/07/03 08:34:57;;;;;;;2.53;2.30;;;23.20;99.90;;;;;;5013055;28;20205;-70
2022/07/03 08:37:23;;;;;;;3.15;2.47;;;23.30;99.90;;;;;;5012975;28;20265;-72
2022/07/03 08:39:48;;;;;;;2.25;2.15;;;23.40;99.90;;;;;;5012846;28;20192;-72
2022/07/03 08:42:15;;;;;;;2.55;2.20;;;23.40;99.90;;;;;;5012718;28;20589;-72
2022/07/03 08:44:43;;;;;;;3.28;2.45;;;23.50;99.90;;;;;;5012915;28;20684;-70
2022/07/03 08:47:11;;;;;;;2.50;2.40;;;23.50;99.90;;;;;;5012999;28;20611;-70
2022/07/03 08:49:38;;;;;;;2.60;2.50;;;23.70;99.90;;;;;;5012916;28;20661;-70
2022/07/03 08:52:07;;;;;;;2.40;2.13;;;23.80;99.90;;;;;;5012280;28;20188;-70
2022/07/03 08:54:33;;;;;;;5.63;2.40;;;23.90;99.90;;;;;;5012779;28;20181;-70
2022/07/03 08:57:02;;;;;;;2.80;2.60;;;23.90;99.90;;;;;;5012495;28;20169;-69
2022/07/03 08:59:36;;;;;;;2.10;2.00;;;24.00;99.90;;;;;;5013025;28;20681;-69
2022/07/03 09:02:04;;;;;;;2.53;2.33;;;24.10;99.90;;;;;;5012329;28;20623;-69
2022/07/03 09:04:30;;;;;;;2.22;2.13;;;24.20;99.90;;;;;;5012589;28;20199;-69
2022/07/03 09:06:58;;;;;;;2.35;2.25;;;24.30;99.90;;;;;;5012638;28;20267;-70
2022/07/03 09:09:24;;;;;;;2.53;2.40;;;24.40;99.90;;;;;;5012462;28;20193;-70
2022/07/03 09:11:51;;;;;;;2.28;2.13;;;24.60;99.90;;;;;;5014417;28;20193;-70
2022/07/03 09:14:16;;;;;;;2.28;2.17;;;24.70;99.90;;;;;;5012035;28;20186;-70
2022/07/03 09:16:42;;;;;;;2.28;2.17;;;24.90;99.90;;;;;;5012504;28;20184;-70
2022/07/03 09:19:08;;;;;;;2.47;2.30;;;25.10;99.90;;;;;;5012477;28;20189;-70
2022/07/03 09:21:38;;;;;;;2.38;2.28;;;25.20;99.90;;;;;;5012389;28;20691;-70
2022/07/03 09:24:06;;;;;;;2.40;2.13;;;25.40;99.90;;;;;;5012049;28;20197;-70
2022/07/03 09:26:32;;;;;;;2.03;1.90;;;25.50;99.90;;;;;;5012247;28;20181;-70
2022/07/03 09:28:58;;;;;;;1.85;1.65;;;25.80;99.90;;;;;;5012078;28;20217;-69
2022/07/03 09:31:25;;;;;;;2.17;2.00;;;25.90;99.90;;;;;;5011726;28;20264;-70
2022/07/03 09:34:07;;;;;;;2.20;2.10;;;26.10;99.90;;;;;;5011917;28;20196;-70
2022/07/03 09:36:42;;;;;;;2.13;2.03;;;26.30;99.90;;;;;;5011861;28;20638;-70
2022/07/03 09:39:19;;;;;;;2.35;1.92;;;26.60;99.90;;;;;;5012197;28;20722;-70
2022/07/03 09:42:00;;;;;;;2.00;1.90;;;27.40;99.90;;;;;;5011877;28;20184;-70
2022/07/03 09:44:45;;;;;;;2.47;2.38;;;29.30;99.10;;;;;;5013605;28;20227;-70
2022/07/03 09:47:23;;;;;;;1.85;1.75;;;31.40;96.70;;;;;;5031727;28;20169;-70
2022/07/03 09:49:53;;;;;;;1.90;1.88;;;33.60;87.40;;;;;;5030752;28;20606;-70
2022/07/03 09:52:39;;;;;;;2.05;1.73;;;35.50;71.80;;;;;;5025708;28;20188;-70
2022/07/03 09:55:11;;;;;;;1.40;1.40;;;37.10;64.10;;;;;;5011897;28;20192;-68
2022/07/03 09:57:41;;;;;;;1.58;1.50;;;38.50;56.70;;;;;;5011835;28;20710;-68
2022/07/03 10:00:21;;;;;;;1.67;1.58;;;39.70;54.10;;;;;;5027090;28;20204;-68
2022/07/03 10:03:00;;;;;;;1.60;1.60;;;40.50;51.30;;;;;;5011495;28;20187;-68
2022/07/03 10:05:27;;;;;;;1.20;1.10;;;41.00;51.00;;;;;;5011629;28;20233;-68
2022/07/03 10:07:58;;;;;;;1.30;1.30;;;41.50;51.20;;;;;;5011523;28;20165;-68
2022/07/03 10:10:26;;;;;;;2.53;1.27;;;41.20;48.40;;;;;;5017984;28;20586;-68
2022/07/03 10:12:53;;;;;;;1.33;1.33;;;41.50;47.60;;;;;;5031262;28;20543;-68
2022/07/03 10:15:20;;;;;;;1.52;1.30;;;42.00;47.10;;;;;;5031427;28;20184;-68
2022/07/03 10:17:50;;;;;;;1.25;1.25;;;42.90;44.50;;;;;;5028519;28;20204;-68
2022/07/03 10:20:25;;;;;;;1.30;1.20;;;43.50;43.00;;;;;;5011646;28;20239;-68
2022/07/03 10:22:51;;;;;;;1.45;1.35;;;43.30;44.40;;;;;;5011069;28;20172;-68
2022/07/03 10:25:17;;;;;;;2.15;1.00;;;43.60;43.70;;;;;;5011565;28;20192;-69
2022/07/03 10:27:45;;;;;;;1.50;1.40;;;43.50;43.30;;;;;;5025162;28;20250;-69
2022/07/03 10:30:14;;;;;;;1.45;1.35;;;43.50;44.10;;;;;;5031161;28;20192;-69
2022/07/03 10:32:41;;;;;;;1.73;1.63;;;44.10;44.20;;;;;;5029844;28;20195;-69
2022/07/03 10:35:08;;;;;;;1.50;1.40;;;43.80;43.20;;;;;;5017382;28;20239;-68
2022/07/03 10:37:45;;;;;;;1.77;1.38;;;43.10;43.40;;;;;;5011671;28;20169;-69
2022/07/03 10:46:21;;;;;;;0.93;0.93;;;43.90;42.50;;;;;;5031428;28;20558;-68
2022/07/03 10:48:58;;;;;;;1.40;1.40;;;43.90;42.30;;;;;;5031117;28;20613;-68
2022/07/03 10:51:25;;;;;;;1.65;1.55;;;43.50;42.10;;;;;;5020014;28;20191;-68
2022/07/03 10:54:10;;;;;;;1.38;1.13;;;43.80;42.60;;;;;;5011057;28;20659;-69
2022/07/03 10:56:56;;;;;;;1.35;1.25;;;43.40;43.20;;;;;;5011230;28;20181;-69
2022/07/03 10:59:21;;;;;;;2.92;1.25;;;44.30;42.40;;;;;;5010660;28;20260;-69
2022/07/03 11:01:47;;;;;;;1.45;0.85;;;44.60;42.50;;;;;;5013193;28;20263;-69
2022/07/03 11:04:12;;;;;;;0.90;0.50;;;45.10;39.10;;;;;;5014663;28;20189;-69
2022/07/03 11:06:44;;;;;;;0.73;0.73;;;45.70;35.60;;;;;;5014804;28;20192;-68
2022/07/03 11:09:13;;;;;;;0.57;0.57;;;45.40;34.10;;;;;;5014636;28;20200;-68
2022/07/03 11:12:00;;;;;;;2.15;0.93;;;44.90;34.00;;;;;;5014575;28;20255;-68
2022/07/03 11:14:27;;;;;;;0.57;0.57;;;44.20;34.70;;;;;;5015092;28;20204;-68
2022/07/03 11:17:21;;;;;;;0.60;0.60;;;43.90;35.80;;;;;;5015627;28;20680;-68
2022/07/03 11:23:08;;;;;;;1.10;1.10;;;43.50;35.00;;;;;;5014293;28;20227;-68
2022/07/03 11:25:48;;;;;;;0.63;0.63;;;43.60;36.10;;;;;;5014285;28;20226;-68
2022/07/03 11:28:32;;;;;;;0.50;0.50;;;43.40;35.40;;;;;;5014348;28;20223;-68
2022/07/03 11:33:42;;;;;;;0.30;0.30;;;43.70;32.30;;;;;;5013265;28;20230;-68
2022/07/03 11:36:11;;;;;;;0.52;0.52;;;43.90;31.50;;;;;;5014276;28;20169;-68
2022/07/03 11:38:37;;;;;;;0.77;0.77;;;43.20;32.50;;;;;;5014295;28;20238;-68
2022/07/03 11:41:07;;;;;;;0.60;0.60;;;42.50;33.80;;;;;;5014210;28;20175;-68
2022/07/03 11:43:36;;;;;;;0.60;0.60;;;41.90;34.00;;;;;;5013562;28;20668;-68
2022/07/03 11:46:03;;;;;;;1.77;0.80;;;41.70;34.70;;;;;;5014040;28;20208;-68
2022/07/03 11:48:30;;;;;;;0.95;0.80;;;41.50;35.90;;;;;;5014001;28;20208;-68
2022/07/03 11:51:04;;;;;;;0.90;0.90;;;41.40;35.00;;;;;;5013665;28;20173;-68
2022/07/03 11:53:33;;;;;;;1.67;0.90;;;40.90;36.90;;;;;;5028136;28;20589;-68
2022/07/03 11:56:10;;;;;;;0.65;0.65;;;40.80;35.80;;;;;;5033674;28;20172;-68
2022/07/03 11:58:50;;;;;;;0.93;0.93;;;41.20;37.50;;;;;;5033611;28;20322;-68
2022/07/03 12:01:22;;;;;;;0.88;0.88;;;41.40;37.60;;;;;;5018751;28;20675;-68
2022/07/03 12:03:48;;;;;;;0.80;0.80;;;41.10;38.80;;;;;;5013489;28;20196;-68
2022/07/03 12:06:15;;;;;;;0.73;0.73;;;41.60;36.70;;;;;;5013828;28;20172;-68
2022/07/03 12:08:45;;;;;;;0.88;0.88;;;41.70;36.00;;;;;;5013441;28;20564;-68
2022/07/03 12:11:13;;;;;;;1.15;0.98;;;42.00;35.60;;;;;;5013267;28;20163;-68
2022/07/03 12:13:39;;;;;;;0.60;0.60;;;41.80;36.10;;;;;;5012767;28;20243;-68
2022/07/03 12:16:09;;;;;;;0.35;0.35;;;41.70;36.50;;;;;;5013594;28;20184;-68
2022/07/03 12:18:51;;;;;;;0.90;0.70;;;41.90;35.30;;;;;;5013528;28;20184;-69
2022/07/03 12:21:18;;;;;;;0.70;0.70;;;42.20;35.20;;;;;;5013466;28;20180;-69
2022/07/03 12:23:46;;;;;;;0.80;0.80;;;42.50;35.30;;;;;;5013223;28;20188;-69
2022/07/03 12:26:13;;;;;;;0.50;0.50;;;41.70;37.20;;;;;;5013172;28;20235;-69
2022/07/03 12:28:39;;;;;;;1.58;0.80;;;42.00;35.90;;;;;;5013356;28;20200;-69
2022/07/03 12:31:05;;;;;;;0.63;0.60;;;42.50;35.00;;;;;;5011840;28;20195;-69
2022/07/03 12:33:35;;;;;;;1.55;0.70;;;42.40;36.60;;;;;;5026097;28;20180;-69
2022/07/03 12:36:08;;;;;;;0.60;0.60;;;42.50;37.40;;;;;;5032849;28;20227;-69
2022/07/03 12:38:37;;;;;;;0.60;0.60;;;43.90;34.10;;;;;;5032946;28;20262;-69
2022/07/03 12:41:10;;;;;;;0.45;0.45;;;45.40;32.60;;;;;;5019483;28;20188;-69
2022/07/03 12:43:39;;;;;;;0.52;0.52;;;47.10;31.00;;;;;;5012780;28;20636;-69
2022/07/03 12:46:17;;;;;;;0.63;0.63;;;46.90;32.00;;;;;;5012969;28;20496;-69
2022/07/03 12:48:54;;;;;;;0.70;0.70;;;48.20;31.10;;;;;;5012507;28;20210;-69
2022/07/03 12:51:39;;;;;;;0.52;0.52;;;51.50;29.50;;;;;;5012811;28;20618;-69
2022/07/03 12:54:05;;;;;;;0.70;0.70;;;53.10;28.70;;;;;;5012684;28;20195;-69
2022/07/03 12:56:31;;;;;;;0.80;0.80;;;54.20;28.40;;;;;;5012821;28;20173;-69
2022/07/03 13:01:40;;;;;;;1.58;0.60;;;55.20;27.20;;;;;;5012576;28;20270;-69
2022/07/03 13:04:14;;;;;;;0.60;0.60;;;55.20;27.00;;;;;;5012578;28;20242;-69
2022/07/03 13:06:41;;;;;;;1.30;0.70;;;55.50;26.80;;;;;;5012644;28;20183;-69
2022/07/03 13:09:07;;;;;;;1.60;0.85;;;54.80;26.80;;;;;;5030699;28;20609;-69
2022/07/03 13:11:41;;;;;;;0.50;0.50;;;55.20;26.60;;;;;;5032250;28;20278;-69
2022/07/03 13:14:15;;;;;;;1.45;0.80;;;56.10;26.50;;;;;;5032200;28;20188;-69
2022/07/03 13:16:42;;;;;;;0.52;0.43;;;56.30;26.30;;;;;;5029071;28;20181;-70
2022/07/03 13:19:10;;;;;;;0.43;0.43;;;57.20;26.50;;;;;;5012437;28;20233;-70
2022/07/03 13:21:36;;;;;;;0.50;0.43;;;58.20;25.80;;;;;;5021051;28;20230;-70
2022/07/03 13:24:02;;;;;;;1.13;0.70;;;58.90;25.70;;;;;;5031225;28;20251;-70